Terminal Aerodrome Forecast
Issued by NWS

Home | Current Version | Previous Version | Text Only | Print | Product List | Glossary On
Versions: 1 2 3 4 5 6 7 8 9 10 11 12 13 14
000
FTUS44 KEPZ 040500
TAFTCS
TAF
KTCS 040537Z 0406/0506 31006KT P6SM FEW120
     FM041300 VRB04KT P6SM FEW100
     FM042000 18014G22KT P6SM VCTS SCT080CB BKN120
     FM050300 22009KT P6SM SCT100 BKN200=

USA.gov is the U.S. government's official web portal to all federal, state and local government web resources and services.